Time;durP1;ratioP1;P1;durP2;ratioP2;P2;SDS_P1;SDS_P2;PMS_P1;PMS_P2;Temp;Humidity;BMP_temperature;BMP_pressure;BME280_temperature;BME280_humidity;BME280_pressure;Samples;Min_cycle;Max_cycle;Signal;HPM_P1;HPM_P2
2023/09/04 00:01:06;;;;;;;7.45;1.60;;;18.40;99.90;;;;;;4169149;28;20040;-69
2023/09/04 00:03:07;;;;;;;1.63;1.52;;;18.50;99.90;;;;;;4169399;28;20054;-69
2023/09/04 00:05:08;;;;;;;2.15;1.67;;;18.50;99.90;;;;;;4170648;28;20516;-70
2023/09/04 00:07:08;;;;;;;2.15;1.60;;;18.40;99.90;;;;;;4168284;28;20625;-68
2023/09/04 00:09:09;;;;;;;1.83;1.60;;;18.40;99.90;;;;;;4170599;28;20103;-69
2023/09/04 00:11:10;;;;;;;1.60;1.35;;;18.40;99.90;;;;;;4172694;28;20120;-68
2023/09/04 00:13:12;;;;;;;3.22;1.80;;;18.40;99.90;;;;;;4168680;28;20086;-69
2023/09/04 00:15:13;;;;;;;2.10;1.58;;;18.40;99.90;;;;;;4163755;28;20029;-69
2023/09/04 00:17:13;;;;;;;1.67;1.50;;;18.30;99.90;;;;;;4164848;28;20099;-69
2023/09/04 00:19:14;;;;;;;2.42;1.63;;;18.30;99.90;;;;;;4162143;28;20033;-68
2023/09/04 00:21:15;;;;;;;2.25;1.75;;;18.30;99.90;;;;;;4164104;28;20033;-68
2023/09/04 00:23:16;;;;;;;4.57;1.60;;;18.30;99.90;;;;;;4167948;28;20049;-69
2023/09/04 00:25:16;;;;;;;1.92;1.48;;;18.30;99.90;;;;;;4164083;28;20040;-69
2023/09/04 00:27:19;;;;;;;1.98;1.42;;;18.30;99.90;;;;;;4168229;28;20061;-80
2023/09/04 00:29:19;;;;;;;1.88;1.70;;;18.20;99.90;;;;;;4171795;28;20040;-80
2023/09/04 00:31:20;;;;;;;2.00;1.50;;;18.20;99.90;;;;;;4171587;28;20057;-81
2023/09/04 00:33:20;;;;;;;2.80;1.70;;;18.10;99.90;;;;;;4173452;28;20450;-81
2023/09/04 00:35:22;;;;;;;1.70;1.60;;;18.10;99.90;;;;;;4172423;28;20097;-80
2023/09/04 00:37:22;;;;;;;2.00;1.58;;;18.10;99.90;;;;;;4170244;28;20112;-81
2023/09/04 00:39:23;;;;;;;1.73;1.38;;;18.10;99.90;;;;;;4171978;28;20102;-81
2023/09/04 00:41:23;;;;;;;1.35;1.23;;;18.00;99.90;;;;;;4165931;28;20033;-80
2023/09/04 00:43:33;;;;;;;2.35;1.60;;;17.90;99.90;;;;;;4165284;28;20512;-79
2023/09/04 00:45:36;;;;;;;6.03;1.45;;;18.00;99.90;;;;;;4173597;28;20099;-81
2023/09/04 00:47:45;;;;;;;1.77;1.52;;;17.90;99.90;;;;;;4171031;28;20025;-81
2023/09/04 00:49:46;;;;;;;1.98;1.33;;;17.90;99.90;;;;;;4171417;28;20052;-80
2023/09/04 00:51:48;;;;;;;1.80;1.65;;;17.90;99.90;;;;;;4166606;28;20641;-80
2023/09/04 00:53:49;;;;;;;3.67;1.40;;;17.80;99.90;;;;;;4171295;28;20148;-81
2023/09/04 00:55:50;;;;;;;2.05;1.40;;;17.80;99.90;;;;;;4167335;28;20083;-80
2023/09/04 00:57:52;;;;;;;1.67;1.35;;;17.80;99.90;;;;;;4175515;28;20116;-81
2023/09/04 00:59:53;;;;;;;1.67;1.38;;;17.80;99.90;;;;;;4167157;28;20059;-79
2023/09/04 01:01:54;;;;;;;1.27;1.15;;;17.80;99.90;;;;;;4170749;28;20044;-80
2023/09/04 01:03:55;;;;;;;1.52;1.42;;;17.80;99.90;;;;;;4168651;28;20049;-80
2023/09/04 01:05:56;;;;;;;3.42;1.75;;;17.80;99.90;;;;;;4172270;28;20500;-79
2023/09/04 01:07:58;;;;;;;2.78;1.67;;;17.80;99.90;;;;;;4165528;28;20038;-80
2023/09/04 01:10:00;;;;;;;2.67;1.67;;;17.80;99.90;;;;;;4165757;28;20401;-79
2023/09/04 01:12:16;;;;;;;3.88;1.77;;;17.80;99.90;;;;;;4166180;28;20047;-79
2023/09/04 01:14:19;;;;;;;1.60;1.48;;;17.80;99.90;;;;;;4163818;28;20114;-79
2023/09/04 01:16:21;;;;;;;1.75;1.60;;;17.80;99.90;;;;;;4167655;28;20711;-80
2023/09/04 01:18:22;;;;;;;2.17;1.85;;;17.70;99.90;;;;;;4167737;28;20040;-79
2023/09/04 01:20:26;;;;;;;2.35;1.75;;;17.80;99.90;;;;;;4167000;28;20098;-80
2023/09/04 01:22:28;;;;;;;1.80;1.60;;;17.70;99.90;;;;;;4166701;28;20135;-80
2023/09/04 01:24:29;;;;;;;1.95;1.48;;;17.70;99.90;;;;;;4162073;28;20110;-75
2023/09/04 01:26:40;;;;;;;1.80;1.48;;;17.70;99.90;;;;;;4163633;28;20041;-78
2023/09/04 01:29:07;;;;;;;4.38;1.73;;;17.70;99.90;;;;;;4165388;28;20070;-77
2023/09/04 01:31:16;;;;;;;1.98;1.60;;;17.60;99.90;;;;;;4160211;28;20477;-79
2023/09/04 01:33:22;;;;;;;2.17;1.50;;;17.60;99.90;;;;;;4163202;28;20088;-79
2023/09/04 01:35:25;;;;;;;3.83;1.63;;;17.60;99.90;;;;;;4165599;28;21497;-77
2023/09/04 01:37:26;;;;;;;2.63;1.70;;;17.60;99.90;;;;;;4166261;28;20061;-63
2023/09/04 01:39:29;;;;;;;1.92;1.70;;;17.50;99.90;;;;;;4165331;28;20042;-63
2023/09/04 01:41:29;;;;;;;4.85;1.65;;;17.60;99.90;;;;;;4165637;28;20040;-64
2023/09/04 01:43:30;;;;;;;2.83;2.15;;;17.50;99.90;;;;;;4166947;28;20498;-63
2023/09/04 01:45:30;;;;;;;3.35;1.50;;;17.50;99.90;;;;;;4162041;28;20060;-63
2023/09/04 01:47:31;;;;;;;2.05;1.67;;;17.50;99.90;;;;;;4163558;28;20392;-63
2023/09/04 01:49:31;;;;;;;1.67;1.33;;;17.50;99.90;;;;;;4164147;28;20052;-63
2023/09/04 01:51:32;;;;;;;2.50;1.60;;;17.50;99.90;;;;;;4159360;28;20049;-63
2023/09/04 01:53:33;;;;;;;2.17;1.70;;;17.50;99.90;;;;;;4169555;28;20044;-63
2023/09/04 01:55:33;;;;;;;2.80;1.77;;;17.50;99.90;;;;;;4166841;28;20095;-62
2023/09/04 01:57:34;;;;;;;3.17;1.60;;;17.40;99.90;;;;;;4168948;28;20559;-63
2023/09/04 01:59:35;;;;;;;3.17;1.90;;;17.50;99.90;;;;;;4168255;28;20119;-63
2023/09/04 02:01:35;;;;;;;2.65;1.55;;;17.50;99.90;;;;;;4167707;28;20797;-63
2023/09/04 02:03:36;;;;;;;2.67;1.83;;;17.40;99.90;;;;;;4166044;28;20055;-63
2023/09/04 02:05:40;;;;;;;1.80;1.63;;;17.40;99.90;;;;;;4164659;28;20029;-63
2023/09/04 02:07:40;;;;;;;1.92;1.48;;;17.40;99.90;;;;;;4167330;28;20037;-63
2023/09/04 02:09:41;;;;;;;2.08;1.70;;;17.40;99.90;;;;;;4169579;28;20060;-63
2023/09/04 02:11:41;;;;;;;2.22;1.55;;;17.40;99.90;;;;;;4162213;28;20034;-63
2023/09/04 02:13:45;;;;;;;2.25;1.70;;;17.30;99.90;;;;;;4168142;28;20043;-62
2023/09/04 02:15:45;;;;;;;2.25;1.80;;;17.30;99.90;;;;;;4165488;28;20033;-63
2023/09/04 02:17:46;;;;;;;2.30;2.10;;;17.30;99.90;;;;;;4162201;28;20045;-63
2023/09/04 02:19:47;;;;;;;3.30;2.22;;;17.20;99.90;;;;;;4172628;28;20026;-63
2023/09/04 02:21:47;;;;;;;3.08;2.40;;;17.10;99.90;;;;;;4168079;28;20493;-62
2023/09/04 02:23:48;;;;;;;4.35;2.05;;;17.10;99.90;;;;;;4165871;28;20037;-63
2023/09/04 02:25:48;;;;;;;2.20;2.00;;;17.10;99.90;;;;;;4165959;28;20540;-63
2023/09/04 02:27:49;;;;;;;2.20;1.85;;;17.10;99.90;;;;;;4168541;28;20040;-63
2023/09/04 02:29:50;;;;;;;3.55;2.45;;;17.10;99.90;;;;;;4168580;28;20061;-63
2023/09/04 02:31:50;;;;;;;3.35;2.28;;;17.10;99.90;;;;;;4160254;28;20045;-63
2023/09/04 02:33:52;;;;;;;2.10;1.90;;;17.10;99.90;;;;;;4173241;28;20068;-63
2023/09/04 02:35:56;;;;;;;3.83;2.20;;;17.10;99.90;;;;;;4166891;28;20072;-63
2023/09/04 02:37:57;;;;;;;2.63;1.92;;;17.10;99.90;;;;;;4163795;28;20091;-63
2023/09/04 02:39:57;;;;;;;3.67;2.22;;;17.10;99.90;;;;;;4159700;28;20444;-63
2023/09/04 02:41:58;;;;;;;3.45;2.25;;;17.10;99.90;;;;;;4163631;28;20426;-63
2023/09/04 02:43:58;;;;;;;3.88;2.58;;;17.00;99.90;;;;;;4173174;28;20540;-63
2023/09/04 02:45:59;;;;;;;3.28;2.40;;;17.00;99.90;;;;;;4165978;28;20067;-72
2023/09/04 02:48:00;;;;;;;2.85;2.20;;;17.00;99.90;;;;;;4166628;28;20042;-64
2023/09/04 02:50:00;;;;;;;4.10;2.92;;;17.00;99.90;;;;;;4167438;28;20045;-65
2023/09/04 02:52:01;;;;;;;2.97;2.55;;;17.00;99.90;;;;;;4167461;28;20445;-65
2023/09/04 02:54:01;;;;;;;3.05;2.50;;;16.90;99.90;;;;;;4170281;28;20051;-65
2023/09/04 02:56:02;;;;;;;2.63;2.15;;;16.90;99.90;;;;;;4180997;28;20029;-65
2023/09/04 02:58:03;;;;;;;4.30;2.50;;;16.90;99.90;;;;;;4168742;28;20119;-65
2023/09/04 03:00:06;;;;;;;2.40;2.20;;;16.90;99.90;;;;;;4174454;28;20029;-64
2023/09/04 03:02:06;;;;;;;3.20;2.40;;;16.90;99.90;;;;;;4166547;28;20131;-64
2023/09/04 03:04:08;;;;;;;2.70;2.25;;;16.90;99.90;;;;;;4177125;28;20390;-65
2023/09/04 03:06:09;;;;;;;3.92;3.05;;;17.00;99.90;;;;;;4173328;28;20044;-64
2023/09/04 03:08:09;;;;;;;3.63;2.50;;;17.00;99.90;;;;;;4169188;28;20048;-66
2023/09/04 03:10:10;;;;;;;3.35;2.30;;;17.00;99.90;;;;;;4165285;28;20405;-66
2023/09/04 03:12:11;;;;;;;3.40;2.40;;;17.00;99.90;;;;;;4171932;28;20039;-65
2023/09/04 03:14:13;;;;;;;2.95;2.63;;;17.00;99.90;;;;;;4166909;28;20076;-65
2023/09/04 03:16:14;;;;;;;2.42;2.22;;;17.00;99.90;;;;;;4170803;28;20029;-65
2023/09/04 03:18:14;;;;;;;2.42;2.22;;;17.00;99.90;;;;;;4169130;28;20083;-65
2023/09/04 03:20:19;;;;;;;3.10;2.40;;;17.00;99.90;;;;;;4167145;28;20037;-65
2023/09/04 03:22:21;;;;;;;4.63;2.30;;;17.00;99.90;;;;;;4160717;28;20042;-65
2023/09/04 03:24:23;;;;;;;3.53;2.55;;;17.00;99.90;;;;;;4171790;28;20052;-64
2023/09/04 03:26:26;;;;;;;3.97;2.63;;;17.00;99.90;;;;;;4170621;28;20037;-64
2023/09/04 03:28:26;;;;;;;2.72;2.35;;;17.00;99.90;;;;;;4166878;28;20098;-64
2023/09/04 03:30:27;;;;;;;3.13;2.50;;;17.00;99.90;;;;;;4169527;28;20543;-64
2023/09/04 03:32:28;;;;;;;4.30;2.85;;;17.00;99.90;;;;;;4166864;28;20391;-65
2023/09/04 03:34:29;;;;;;;2.80;2.50;;;17.00;99.90;;;;;;4167721;28;20045;-65
2023/09/04 03:36:30;;;;;;;3.03;2.28;;;17.00;99.90;;;;;;4166126;28;20037;-64
2023/09/04 03:38:30;;;;;;;2.47;2.20;;;17.00;99.90;;;;;;4174617;28;20457;-64
2023/09/04 03:40:31;;;;;;;2.85;2.42;;;17.00;99.90;;;;;;4166436;28;20040;-66
2023/09/04 03:42:31;;;;;;;3.03;2.60;;;17.00;99.90;;;;;;4167268;28;20441;-65
2023/09/04 03:44:32;;;;;;;2.90;2.33;;;17.00;99.90;;;;;;4173032;28;20041;-65
2023/09/04 03:46:33;;;;;;;5.63;3.30;;;17.00;99.90;;;;;;4161861;28;20092;-65
2023/09/04 03:48:33;;;;;;;3.83;2.78;;;17.00;99.90;;;;;;4174873;28;20044;-65
2023/09/04 03:50:35;;;;;;;3.90;2.65;;;17.00;99.90;;;;;;4163942;28;20427;-65
2023/09/04 03:52:36;;;;;;;4.63;2.70;;;17.00;99.90;;;;;;4166776;28;20111;-64
2023/09/04 03:54:37;;;;;;;3.22;2.75;;;16.90;99.90;;;;;;4168433;28;20037;-65
2023/09/04 03:56:37;;;;;;;3.33;2.85;;;16.90;99.90;;;;;;4170497;28;20029;-78
2023/09/04 03:58:38;;;;;;;3.42;2.08;;;16.90;99.90;;;;;;4167651;28;20041;-78
2023/09/04 04:00:38;;;;;;;2.95;2.30;;;16.90;99.90;;;;;;4166253;28;20036;-78
2023/09/04 04:02:39;;;;;;;3.42;2.20;;;16.80;99.90;;;;;;4170248;28;20427;-78
2023/09/04 04:04:39;;;;;;;4.15;2.20;;;16.80;99.90;;;;;;4170839;28;20064;-78
2023/09/04 04:06:40;;;;;;;2.88;2.20;;;16.80;99.90;;;;;;4169021;28;20590;-73
2023/09/04 04:08:41;;;;;;;3.03;2.50;;;16.70;99.90;;;;;;4170185;28;20086;-77
2023/09/04 04:10:44;;;;;;;2.90;2.40;;;16.70;99.90;;;;;;4166392;28;20041;-78
2023/09/04 04:12:44;;;;;;;3.50;2.22;;;16.70;99.90;;;;;;4166887;28;20037;-78
2023/09/04 04:14:45;;;;;;;3.53;2.58;;;16.70;99.90;;;;;;4169023;28;20534;-78
2023/09/04 04:16:46;;;;;;;3.25;2.40;;;16.60;99.90;;;;;;4164748;28;20097;-78
2023/09/04 04:18:46;;;;;;;3.30;2.30;;;16.60;99.90;;;;;;4172567;28;20045;-77
2023/09/04 04:20:47;;;;;;;3.13;2.55;;;16.60;99.90;;;;;;4172555;28;20374;-77
2023/09/04 04:22:48;;;;;;;2.83;2.30;;;16.60;99.90;;;;;;4164711;28;20036;-78
2023/09/04 04:24:49;;;;;;;3.55;2.55;;;16.60;99.90;;;;;;4171731;28;20040;-78
2023/09/04 04:26:49;;;;;;;3.20;2.30;;;16.50;99.90;;;;;;4171367;28;20381;-78
2023/09/04 04:28:50;;;;;;;3.03;2.50;;;16.50;99.90;;;;;;4169916;28;20037;-78
2023/09/04 04:30:50;;;;;;;2.88;2.28;;;16.50;99.90;;;;;;4163995;28;20033;-77
2023/09/04 04:32:51;;;;;;;2.95;2.42;;;16.50;99.90;;;;;;4168950;28;20044;-78
2023/09/04 04:34:52;;;;;;;2.90;2.40;;;16.60;99.90;;;;;;4172619;28;26341;-78
2023/09/04 04:36:55;;;;;;;3.65;2.70;;;16.50;99.90;;;;;;4170593;28;20072;-78
2023/09/04 04:38:56;;;;;;;3.63;2.70;;;16.50;99.90;;;;;;4166978;28;20033;-78
2023/09/04 04:40:57;;;;;;;3.40;2.53;;;16.60;99.90;;;;;;4166653;28;20029;-78
2023/09/04 04:42:58;;;;;;;3.28;2.50;;;16.60;99.90;;;;;;4170637;28;20060;-78
2023/09/04 04:44:58;;;;;;;4.07;2.67;;;16.60;99.90;;;;;;4172320;28;20039;-78
2023/09/04 04:46:59;;;;;;;3.70;2.83;;;16.60;99.90;;;;;;4162374;28;20029;-77
2023/09/04 04:49:00;;;;;;;3.55;2.50;;;16.60;99.90;;;;;;4169159;28;20523;-78
2023/09/04 04:51:00;;;;;;;4.60;2.92;;;16.60;99.90;;;;;;4168789;28;20107;-77
2023/09/04 04:53:01;;;;;;;3.30;2.33;;;16.60;99.90;;;;;;4171530;28;20044;-78
2023/09/04 04:55:02;;;;;;;3.28;2.70;;;16.60;99.90;;;;;;4171719;28;20041;-78
2023/09/04 04:57:03;;;;;;;2.90;2.33;;;16.60;99.90;;;;;;4174754;28;20107;-78
2023/09/04 04:59:04;;;;;;;3.85;2.60;;;16.50;99.90;;;;;;4167092;28;20061;-80
2023/09/04 05:01:08;;;;;;;3.72;2.70;;;16.50;99.90;;;;;;4164055;28;20068;-78
2023/09/04 05:03:08;;;;;;;3.60;2.75;;;16.40;99.90;;;;;;4168017;28;20052;-78
2023/09/04 05:05:10;;;;;;;5.32;3.10;;;16.50;99.90;;;;;;4168113;28;20038;-71
2023/09/04 05:07:12;;;;;;;3.22;2.45;;;16.40;99.90;;;;;;4169069;28;20155;-61
2023/09/04 05:09:13;;;;;;;4.40;2.72;;;16.40;99.90;;;;;;4168746;28;20521;-62
2023/09/04 05:11:13;;;;;;;7.38;3.42;;;16.40;99.90;;;;;;4160330;28;20033;-62
2023/09/04 05:13:14;;;;;;;3.05;2.70;;;16.30;99.90;;;;;;4168180;28;20045;-62
2023/09/04 05:15:15;;;;;;;4.18;2.58;;;16.30;99.90;;;;;;4170739;28;20033;-62
2023/09/04 05:17:16;;;;;;;3.95;2.70;;;16.30;99.90;;;;;;4165480;28;20043;-62
2023/09/04 05:19:16;;;;;;;3.72;2.63;;;16.30;99.90;;;;;;4166666;28;20120;-62
2023/09/04 05:21:17;;;;;;;3.10;2.60;;;16.40;99.90;;;;;;4165669;28;20496;-62
2023/09/04 05:23:17;;;;;;;5.03;2.78;;;16.30;99.90;;;;;;4163358;28;20044;-62
2023/09/04 05:25:18;;;;;;;4.40;2.72;;;16.30;99.90;;;;;;4165038;28;20052;-62
2023/09/04 05:27:19;;;;;;;3.80;2.78;;;16.30;99.90;;;;;;4174534;28;20036;-62
2023/09/04 05:29:19;;;;;;;4.45;2.88;;;16.30;99.90;;;;;;4159839;28;20026;-61
2023/09/04 05:31:20;;;;;;;7.40;3.20;;;16.30;99.90;;;;;;4159836;28;20065;-62
2023/09/04 05:33:20;;;;;;;4.40;2.80;;;16.30;99.90;;;;;;4161489;28;20052;-62
2023/09/04 05:35:21;;;;;;;4.07;2.88;;;16.30;99.90;;;;;;4156413;28;20428;-62
2023/09/04 05:37:22;;;;;;;3.17;2.88;;;16.30;99.90;;;;;;4161641;28;20037;-62
2023/09/04 05:39:23;;;;;;;5.20;3.03;;;16.30;99.90;;;;;;4163359;28;20133;-62
2023/09/04 05:41:24;;;;;;;4.30;2.95;;;16.30;99.90;;;;;;4170422;28;20553;-62
2023/09/04 05:43:24;;;;;;;4.10;3.03;;;16.30;99.90;;;;;;4169858;28;20028;-62
2023/09/04 05:45:25;;;;;;;5.75;3.20;;;16.30;99.90;;;;;;4170114;28;20033;-62
2023/09/04 05:47:25;;;;;;;4.38;2.83;;;16.40;99.90;;;;;;4168758;28;20094;-62
2023/09/04 05:49:26;;;;;;;6.47;3.20;;;16.40;99.90;;;;;;4170524;28;20448;-62
2023/09/04 05:51:27;;;;;;;4.18;3.03;;;16.40;99.90;;;;;;4168209;28;20040;-62
2023/09/04 05:53:28;;;;;;;5.82;3.53;;;16.50;99.90;;;;;;4176515;28;20497;-62
2023/09/04 05:55:29;;;;;;;6.50;3.55;;;16.50;99.90;;;;;;4174749;28;20087;-62
2023/09/04 05:57:30;;;;;;;6.03;3.65;;;16.50;99.90;;;;;;4176123;28;20044;-62
2023/09/04 05:59:30;;;;;;;7.35;3.78;;;16.40;99.90;;;;;;4173938;28;20060;-62
2023/09/04 06:01:31;;;;;;;6.32;3.85;;;16.40;99.90;;;;;;4176010;28;20032;-62
2023/09/04 06:03:31;;;;;;;4.60;3.63;;;16.30;99.90;;;;;;4174196;28;20102;-62
2023/09/04 06:05:32;;;;;;;5.43;3.58;;;16.30;99.90;;;;;;4173493;28;20034;-62
2023/09/04 06:07:34;;;;;;;5.53;3.60;;;16.30;99.90;;;;;;4174412;28;20037;-62
2023/09/04 06:09:35;;;;;;;5.82;3.75;;;16.30;99.90;;;;;;4175341;28;20033;-62
2023/09/04 06:11:35;;;;;;;4.18;3.13;;;16.40;99.90;;;;;;4172293;28;20381;-62
2023/09/04 06:13:36;;;;;;;4.72;3.40;;;16.40;99.90;;;;;;4185111;28;20040;-63
2023/09/04 06:15:37;;;;;;;5.07;3.30;;;16.40;99.90;;;;;;4171086;28;20037;-62
2023/09/04 06:17:37;;;;;;;4.30;3.33;;;16.50;99.90;;;;;;4180311;28;20044;-63
2023/09/04 06:19:38;;;;;;;4.30;2.95;;;16.60;99.90;;;;;;4171242;28;20025;-63
2023/09/04 06:21:38;;;;;;;4.88;3.55;;;16.60;99.90;;;;;;4175458;28;20039;-63
2023/09/04 06:23:39;;;;;;;6.32;3.85;;;16.70;99.90;;;;;;4178172;28;20114;-63
2023/09/04 06:25:42;;;;;;;5.60;3.70;;;16.80;99.90;;;;;;4170713;28;20041;-63
2023/09/04 06:27:43;;;;;;;5.47;4.07;;;16.80;99.90;;;;;;4174639;28;20033;-63
2023/09/04 06:29:44;;;;;;;6.38;3.90;;;16.90;99.90;;;;;;4170181;28;20545;-63
2023/09/04 06:31:45;;;;;;;6.00;3.83;;;17.10;99.90;;;;;;4174719;28;20029;-63
2023/09/04 06:33:45;;;;;;;6.57;4.10;;;17.20;99.90;;;;;;4179683;28;20045;-63
2023/09/04 06:35:47;;;;;;;5.63;3.88;;;17.40;99.90;;;;;;4174002;28;20949;-63
2023/09/04 06:37:47;;;;;;;6.75;4.00;;;17.70;99.90;;;;;;4186216;28;20029;-62
2023/09/04 06:39:48;;;;;;;5.32;3.83;;;17.90;99.90;;;;;;4187438;28;20106;-63
2023/09/04 06:41:49;;;;;;;7.40;3.63;;;18.20;99.90;;;;;;4173833;28;20033;-63
2023/09/04 06:43:49;;;;;;;7.35;4.13;;;18.50;99.90;;;;;;4177598;28;20037;-63
2023/09/04 06:45:50;;;;;;;6.38;3.83;;;18.80;99.90;;;;;;4170649;28;20033;-62
2023/09/04 06:47:51;;;;;;;5.97;3.50;;;19.00;99.90;;;;;;4183541;28;20146;-62
2023/09/04 06:49:51;;;;;;;4.90;3.13;;;19.20;99.90;;;;;;4179513;28;20052;-63
2023/09/04 06:51:52;;;;;;;5.78;3.60;;;19.50;99.90;;;;;;4161213;28;20027;-63
2023/09/04 06:53:52;;;;;;;6.40;3.47;;;19.80;99.90;;;;;;4187954;28;20049;-62
2023/09/04 06:55:53;;;;;;;5.25;2.95;;;20.10;99.90;;;;;;4178869;28;20132;-62
2023/09/04 06:57:54;;;;;;;5.05;3.15;;;20.50;99.90;;;;;;4180572;28;20086;-62
2023/09/04 06:59:58;;;;;;;6.78;3.30;;;20.70;99.90;;;;;;4187070;28;20047;-62
2023/09/04 07:01:58;;;;;;;6.32;3.10;;;21.00;99.90;;;;;;4172281;28;20397;-62
2023/09/04 07:03:59;;;;;;;3.83;2.70;;;21.20;99.90;;;;;;4177441;28;20041;-63
2023/09/04 07:06:00;;;;;;;4.75;2.88;;;21.40;99.90;;;;;;4173056;28;20410;-63
2023/09/04 07:08:01;;;;;;;6.78;2.83;;;21.60;99.90;;;;;;4183507;28;20036;-62
2023/09/04 07:10:06;;;;;;;5.90;2.60;;;21.80;99.90;;;;;;4170853;28;20544;-62
2023/09/04 07:12:07;;;;;;;4.82;2.92;;;22.00;99.90;;;;;;4171991;28;20040;-64
2023/09/04 07:14:08;;;;;;;5.40;2.80;;;22.30;99.90;;;;;;4171963;28;20408;-64
2023/09/04 07:16:08;;;;;;;4.70;2.80;;;22.40;99.90;;;;;;4165917;28;20040;-63
2023/09/04 07:18:09;;;;;;;6.53;3.30;;;22.70;99.90;;;;;;4173283;28;20047;-62
2023/09/04 07:20:13;;;;;;;5.13;3.15;;;22.60;99.90;;;;;;4170850;28;20171;-63
2023/09/04 07:22:14;;;;;;;4.78;2.72;;;22.80;99.90;;;;;;4164791;28;20065;-63
2023/09/04 07:24:14;;;;;;;3.58;2.53;;;22.90;99.90;;;;;;4181165;28;20709;-63
2023/09/04 07:26:15;;;;;;;4.40;2.72;;;23.10;99.90;;;;;;4172403;28;20413;-65
2023/09/04 07:28:15;;;;;;;5.90;3.05;;;23.10;99.90;;;;;;4175309;28;20037;-62
2023/09/04 07:30:16;;;;;;;3.03;2.03;;;23.00;99.90;;;;;;4175308;28;20167;-62
2023/09/04 07:32:17;;;;;;;3.63;2.42;;;23.20;99.90;;;;;;4169123;28;20029;-61
2023/09/04 07:34:17;;;;;;;3.85;2.33;;;23.30;99.90;;;;;;4170474;28;20146;-61
2023/09/04 07:36:18;;;;;;;4.72;2.38;;;23.10;99.90;;;;;;4167128;28;20044;-62
2023/09/04 07:38:19;;;;;;;2.13;1.80;;;23.20;99.90;;;;;;4170991;28;20037;-61
2023/09/04 07:40:19;;;;;;;2.72;2.08;;;23.40;99.90;;;;;;4173995;28;20100;-61
2023/09/04 07:42:22;;;;;;;4.65;2.17;;;23.50;99.90;;;;;;4168456;28;20169;-61
2023/09/04 07:44:22;;;;;;;7.50;2.28;;;23.30;99.90;;;;;;4168946;28;20053;-61
2023/09/04 07:46:23;;;;;;;3.22;1.95;;;23.40;99.90;;;;;;4168034;28;20048;-61
2023/09/04 07:48:24;;;;;;;2.92;2.10;;;23.50;99.90;;;;;;4168660;28;20516;-61
2023/09/04 07:50:24;;;;;;;3.05;2.10;;;23.60;99.90;;;;;;4166545;28;20056;-61
2023/09/04 07:52:25;;;;;;;2.97;2.00;;;23.60;99.90;;;;;;4171402;28;20025;-62
2023/09/04 07:54:26;;;;;;;2.00;1.58;;;23.60;99.90;;;;;;4172049;28;20239;-61
2023/09/04 07:56:26;;;;;;;2.88;1.90;;;23.70;99.90;;;;;;4165837;28;20044;-61
2023/09/04 07:58:27;;;;;;;3.25;1.73;;;23.70;99.90;;;;;;4171576;28;20503;-61
2023/09/04 08:00:27;;;;;;;2.70;1.98;;;23.90;99.90;;;;;;4168858;28;20033;-61
2023/09/04 08:02:28;;;;;;;4.68;1.85;;;23.90;99.90;;;;;;4168337;28;20052;-61
2023/09/04 08:04:29;;;;;;;3.40;2.00;;;24.00;99.90;;;;;;4170866;28;20060;-61
2023/09/04 08:06:29;;;;;;;4.00;1.90;;;24.00;99.90;;;;;;4170709;28;20064;-61
2023/09/04 08:08:30;;;;;;;5.00;2.30;;;24.10;99.90;;;;;;4171029;28;20044;-61
2023/09/04 08:10:30;;;;;;;4.28;2.08;;;24.00;99.90;;;;;;4170876;28;20056;-61
2023/09/04 08:12:31;;;;;;;2.80;2.05;;;24.00;99.90;;;;;;4171077;28;20064;-61
2023/09/04 08:14:36;;;;;;;4.32;2.20;;;24.00;99.90;;;;;;4171069;28;20048;-61
2023/09/04 08:16:36;;;;;;;2.92;1.67;;;24.10;99.90;;;;;;4169110;28;20079;-61
2023/09/04 08:18:37;;;;;;;3.72;1.67;;;24.10;99.90;;;;;;4169820;28;20413;-61
2023/09/04 08:20:39;;;;;;;5.35;2.22;;;24.20;99.90;;;;;;4168769;28;20042;-62
2023/09/04 08:22:39;;;;;;;7.00;2.50;;;24.20;99.90;;;;;;4170858;28;20044;-61
2023/09/04 08:24:40;;;;;;;3.72;2.10;;;24.30;99.90;;;;;;4167438;28;20083;-61
2023/09/04 08:26:40;;;;;;;4.20;2.13;;;24.30;99.90;;;;;;4167520;28;20128;-61
2023/09/04 08:28:42;;;;;;;2.20;1.70;;;24.40;99.90;;;;;;4168110;28;20041;-61
2023/09/04 08:30:43;;;;;;;2.80;1.83;;;24.40;99.90;;;;;;4168529;28;20246;-61
2023/09/04 08:32:44;;;;;;;2.70;1.92;;;24.50;99.90;;;;;;4167402;28;20387;-60
2023/09/04 08:34:45;;;;;;;2.27;1.57;;;24.30;99.90;;;;;;4169815;28;20041;-61
2023/09/04 08:36:46;;;;;;;2.13;1.60;;;24.40;99.90;;;;;;4170957;28;20698;-69
2023/09/04 08:38:46;;;;;;;3.03;1.98;;;24.50;99.90;;;;;;4170440;28;20057;-68
2023/09/04 08:40:47;;;;;;;3.22;2.05;;;24.50;99.90;;;;;;4166306;28;20053;-68
2023/09/04 08:42:50;;;;;;;4.05;2.42;;;24.40;99.90;;;;;;4168590;28;21576;-68
2023/09/04 08:44:52;;;;;;;4.60;1.98;;;24.50;99.90;;;;;;4170750;28;20071;-69
2023/09/04 08:46:53;;;;;;;5.85;2.47;;;24.50;99.90;;;;;;4168932;28;20048;-69
2023/09/04 08:48:56;;;;;;;4.05;2.80;;;24.50;99.90;;;;;;4169541;28;20537;-69
2023/09/04 08:50:57;;;;;;;5.53;3.35;;;24.40;99.90;;;;;;4168373;28;20079;-68
2023/09/04 08:52:58;;;;;;;6.70;3.42;;;24.50;99.90;;;;;;4169972;28;20041;-69
2023/09/04 08:55:00;;;;;;;7.03;3.58;;;24.50;99.90;;;;;;4163167;28;20071;-68
2023/09/04 08:57:01;;;;;;;5.45;3.22;;;24.50;99.90;;;;;;4166281;28;20041;-69
2023/09/04 08:59:02;;;;;;;6.37;3.03;;;24.50;99.90;;;;;;4169049;28;20037;-69
2023/09/04 09:01:03;;;;;;;7.93;3.70;;;24.60;99.90;;;;;;4167517;28;20413;-69
2023/09/04 09:03:04;;;;;;;6.57;3.17;;;24.50;99.90;;;;;;4168268;28;20045;-69
2023/09/04 09:05:07;;;;;;;6.80;3.38;;;24.50;99.90;;;;;;4163730;28;20045;-69
2023/09/04 09:07:10;;;;;;;6.68;3.35;;;24.50;99.90;;;;;;4169493;28;20041;-69
2023/09/04 09:09:12;;;;;;;8.13;3.92;;;24.60;99.90;;;;;;4170498;28;20098;-70
2023/09/04 09:11:13;;;;;;;6.07;3.67;;;24.50;99.90;;;;;;4158490;28;20540;-70
2023/09/04 09:13:14;;;;;;;7.43;3.60;;;24.70;99.90;;;;;;4168291;28;20064;-68
2023/09/04 09:15:17;;;;;;;6.97;3.38;;;24.70;99.90;;;;;;4163383;28;20045;-68
2023/09/04 09:17:18;;;;;;;;;;;24.70;99.90;;;;;;4165289;28;20051;-68
2023/09/04 09:19:20;;;;;;;9.02;3.47;;;24.80;99.90;;;;;;4165399;28;19916;-69
2023/09/04 09:21:34;;;;;;;5.35;3.10;;;24.80;99.90;;;;;;4165365;28;20060;-70
2023/09/04 09:23:35;;;;;;;6.45;2.65;;;24.80;99.90;;;;;;4158956;28;20394;-69
2023/09/04 09:25:37;;;;;;;4.13;2.50;;;24.90;99.90;;;;;;4167374;28;20112;-69
2023/09/04 09:27:44;;;;;;;4.18;2.42;;;25.00;99.90;;;;;;4185160;28;20074;-70
2023/09/04 09:29:47;;;;;;;5.15;2.60;;;24.80;99.40;;;;;;4171735;28;20108;-69
2023/09/04 09:31:52;;;;;;;7.60;2.83;;;24.90;99.90;;;;;;4168636;28;20033;-70
2023/09/04 09:33:53;;;;;;;4.40;2.45;;;24.90;99.70;;;;;;4169734;28;20676;-69
2023/09/04 09:35:54;;;;;;;7.10;2.70;;;25.00;99.90;;;;;;4167592;28;20044;-69
2023/09/04 09:37:55;;;;;;;6.18;2.55;;;25.10;99.40;;;;;;4171407;28;20421;-69
2023/09/04 09:39:55;;;;;;;5.22;2.90;;;24.90;99.10;;;;;;4169598;28;20037;-69
2023/09/04 09:41:59;;;;;;;4.82;2.38;;;24.80;99.40;;;;;;4168380;28;20041;-69
2023/09/04 09:44:02;;;;;;;4.53;2.33;;;24.70;99.50;;;;;;4171495;28;20041;-70
2023/09/04 09:46:02;;;;;;;4.65;2.30;;;24.90;99.90;;;;;;4166654;28;20412;-69
2023/09/04 09:48:12;;;;;;;5.85;2.47;;;25.00;99.90;;;;;;4171173;28;20059;-78
2023/09/04 09:50:15;;;;;;;5.03;2.10;;;25.00;99.90;;;;;;4168215;28;21171;-76
2023/09/04 09:52:16;;;;;;;3.65;2.35;;;25.10;99.30;;;;;;4167163;28;20466;-73
2023/09/04 09:54:17;;;;;;;4.70;2.78;;;25.20;98.80;;;;;;4170189;28;20057;-77
2023/09/04 09:56:20;;;;;;;3.28;2.00;;;25.20;98.60;;;;;;4167866;28;20450;-77
2023/09/04 09:58:21;;;;;;;4.80;2.38;;;25.30;99.20;;;;;;4169888;28;20033;-76
2023/09/04 10:00:21;;;;;;;4.32;2.72;;;25.30;99.40;;;;;;4168133;28;20097;-78
2023/09/04 10:02:24;;;;;;;4.78;2.65;;;25.30;99.40;;;;;;4168263;28;20083;-79
2023/09/04 10:04:26;;;;;;;4.53;2.47;;;25.40;99.60;;;;;;4169440;28;20127;-78
2023/09/04 10:06:34;;;;;;;6.28;2.25;;;25.40;98.00;;;;;;4170018;28;20583;-77
2023/09/04 10:08:40;;;;;;;4.22;2.13;;;25.40;96.70;;;;;;4169770;28;20140;-77
2023/09/04 10:10:43;;;;;;;3.38;1.98;;;25.50;97.60;;;;;;4169103;28;20124;-77
2023/09/04 10:12:49;;;;;;;3.92;2.10;;;25.40;96.00;;;;;;4173611;28;20041;-77
2023/09/04 10:14:54;;;;;;;4.38;2.50;;;25.50;95.60;;;;;;4171311;28;20060;-77
2023/09/04 10:16:58;;;;;;;4.05;2.20;;;25.60;95.40;;;;;;4174068;28;20068;-77
2023/09/04 10:19:02;;;;;;;2.70;1.83;;;25.60;95.50;;;;;;4174682;28;20582;-76
2023/09/04 10:21:06;;;;;;;4.50;2.20;;;25.70;95.40;;;;;;4171110;28;20029;-77
2023/09/04 10:23:11;;;;;;;4.90;2.08;;;25.70;95.40;;;;;;4172277;28;20041;-77
2023/09/04 10:25:23;;;;;;;6.47;2.83;;;25.70;95.40;;;;;;4164405;28;20036;-76
2023/09/04 10:27:26;;;;;;;4.70;2.80;;;25.70;94.70;;;;;;4173475;28;20170;-77
2023/09/04 10:29:31;;;;;;;5.15;2.47;;;25.70;95.00;;;;;;4175039;28;20033;-76
2023/09/04 10:31:34;;;;;;;3.97;2.38;;;25.70;96.80;;;;;;4171173;28;21055;-77
2023/09/04 10:33:37;;;;;;;5.18;2.75;;;25.70;94.50;;;;;;4170437;28;20106;-76